METAR Data
IDs: Format: Raw Decoded Include TAF

Data at: 1336 UTC 14 Dec 2019

METAR for:KCNC (Chariton Muni, IA, US)
Text:KCNC 141335Z AUTO 33016KT 8SM OVC013 M04/M04 A2989 RMK AO2
Temperature: -4.0°C ( 25°F)
Dewpoint: -4.0°C ( 25°F) [RH = 100%]
Pressure (altimeter):29.89 inches Hg (1012.3 mb)
Winds:from the NNW (330 degrees) at 18 MPH (16 knots; 8.2 m/s)
Visibility: 8 sm ( 13 km)
Ceiling:1300 feet AGL
Clouds: overcast cloud deck at 1300 feet AGL
QC Flag:automated observation with no human augmentation